sensor_id;sensor_type;location;lat;lon;timestamp;temperature;humidity
4699;DHT22;33708;49.466;11.176;2022-07-11T00:01:49;14.10;1.00
4699;DHT22;33708;49.466;11.176;2022-07-11T00:04:15;14.10;1.00
4699;DHT22;33708;49.466;11.176;2022-07-11T00:06:41;14.00;1.00
4699;DHT22;33708;49.466;11.176;2022-07-11T00:09:06;14.00;1.00
4699;DHT22;33708;49.466;11.176;2022-07-11T00:11:32;13.90;1.00
4699;DHT22;33708;49.466;11.176;2022-07-11T00:13:58;13.90;1.00
4699;DHT22;33708;49.466;11.176;2022-07-11T00:16:24;13.80;1.00
4699;DHT22;33708;49.466;11.176;2022-07-11T00:18:49;13.80;1.00
4699;DHT22;33708;49.466;11.176;2022-07-11T00:21:15;13.80;1.00
4699;DHT22;33708;49.466;11.176;2022-07-11T00:23:40;13.90;1.00
4699;DHT22;33708;49.466;11.176;2022-07-11T00:26:06;13.80;1.00
4699;DHT22;33708;49.466;11.176;2022-07-11T00:28:32;13.80;1.00
4699;DHT22;33708;49.466;11.176;2022-07-11T00:30:57;13.80;1.00
4699;DHT22;33708;49.466;11.176;2022-07-11T00:33:23;13.90;1.00
4699;DHT22;33708;49.466;11.176;2022-07-11T00:35:49;13.90;1.00
4699;DHT22;33708;49.466;11.176;2022-07-11T00:38:14;13.90;1.00
4699;DHT22;33708;49.466;11.176;2022-07-11T00:40:40;13.80;1.00
4699;DHT22;33708;49.466;11.176;2022-07-11T00:43:06;14.00;1.00
4699;DHT22;33708;49.466;11.176;2022-07-11T00:45:32;14.20;1.00
4699;DHT22;33708;49.466;11.176;2022-07-11T00:47:58;14.20;1.00
4699;DHT22;33708;49.466;11.176;2022-07-11T00:50:25;14.50;1.00
4699;DHT22;33708;49.466;11.176;2022-07-11T00:52:55;14.70;1.00
4699;DHT22;33708;49.466;11.176;2022-07-11T00:55:22;14.90;1.00
4699;DHT22;33708;49.466;11.176;2022-07-11T00:57:51;14.90;1.00
4699;DHT22;33708;49.466;11.176;2022-07-11T01:00:18;14.80;1.00
4699;DHT22;33708;49.466;11.176;2022-07-11T01:02:43;14.70;1.00
4699;DHT22;33708;49.466;11.176;2022-07-11T01:05:09;14.60;1.00
4699;DHT22;33708;49.466;11.176;2022-07-11T01:07:35;14.50;1.00
4699;DHT22;33708;49.466;11.176;2022-07-11T01:10:00;14.50;1.00
4699;DHT22;33708;49.466;11.176;2022-07-11T01:12:26;14.50;1.00
4699;DHT22;33708;49.466;11.176;2022-07-11T01:14:53;14.50;1.00
4699;DHT22;33708;49.466;11.176;2022-07-11T01:17:19;14.60;1.00
4699;DHT22;33708;49.466;11.176;2022-07-11T01:19:45;14.50;1.00
4699;DHT22;33708;49.466;11.176;2022-07-11T01:22:14;14.60;1.00
4699;DHT22;33708;49.466;11.176;2022-07-11T01:24:41;14.60;1.00
4699;DHT22;33708;49.466;11.176;2022-07-11T01:27:07;14.70;1.00
4699;DHT22;33708;49.466;11.176;2022-07-11T01:29:34;14.70;1.00
4699;DHT22;33708;49.466;11.176;2022-07-11T01:31:59;14.70;1.00
4699;DHT22;33708;49.466;11.176;2022-07-11T01:34:25;14.70;1.00
4699;DHT22;33708;49.466;11.176;2022-07-11T01:36:51;14.80;1.00
4699;DHT22;33708;49.466;11.176;2022-07-11T01:39:16;14.70;1.00
4699;DHT22;33708;49.466;11.176;2022-07-11T01:41:42;14.80;1.00
4699;DHT22;33708;49.466;11.176;2022-07-11T01:44:07;14.70;1.00
4699;DHT22;33708;49.466;11.176;2022-07-11T01:46:33;14.90;1.00
4699;DHT22;33708;49.466;11.176;2022-07-11T01:48:59;14.90;1.00
4699;DHT22;33708;49.466;11.176;2022-07-11T01:51:24;14.90;1.00
4699;DHT22;33708;49.466;11.176;2022-07-11T01:53:51;14.90;1.00
4699;DHT22;33708;49.466;11.176;2022-07-11T01:56:17;15.00;1.00
4699;DHT22;33708;49.466;11.176;2022-07-11T01:58:43;14.90;1.00
4699;DHT22;33708;49.466;11.176;2022-07-11T02:01:08;15.00;1.00
4699;DHT22;33708;49.466;11.176;2022-07-11T02:03:34;15.00;1.00
4699;DHT22;33708;49.466;11.176;2022-07-11T02:06:03;15.10;1.00
4699;DHT22;33708;49.466;11.176;2022-07-11T02:08:28;15.10;1.00
4699;DHT22;33708;49.466;11.176;2022-07-11T02:10:54;14.90;1.00
4699;DHT22;33708;49.466;11.176;2022-07-11T02:13:21;15.00;1.00
4699;DHT22;33708;49.466;11.176;2022-07-11T02:15:47;14.90;1.00
4699;DHT22;33708;49.466;11.176;2022-07-11T02:18:14;15.00;1.00
4699;DHT22;33708;49.466;11.176;2022-07-11T02:20:42;15.70;1.00
4699;DHT22;33708;49.466;11.176;2022-07-11T02:23:08;15.10;1.00
4699;DHT22;33708;49.466;11.176;2022-07-11T02:25:34;15.10;1.00
4699;DHT22;33708;49.466;11.176;2022-07-11T02:28:04;15.10;1.00
4699;DHT22;33708;49.466;11.176;2022-07-11T02:30:30;15.20;1.00
4699;DHT22;33708;49.466;11.176;2022-07-11T02:32:56;15.10;1.00
4699;DHT22;33708;49.466;11.176;2022-07-11T02:35:22;15.10;1.00
4699;DHT22;33708;49.466;11.176;2022-07-11T02:37:47;15.10;1.00
4699;DHT22;33708;49.466;11.176;2022-07-11T02:40:14;15.20;1.00
4699;DHT22;33708;49.466;11.176;2022-07-11T02:42:40;15.20;1.00
4699;DHT22;33708;49.466;11.176;2022-07-11T02:45:06;15.20;1.00
4699;DHT22;33708;49.466;11.176;2022-07-11T02:47:34;15.20;1.00
4699;DHT22;33708;49.466;11.176;2022-07-11T02:49:59;15.20;1.00
4699;DHT22;33708;49.466;11.176;2022-07-11T02:52:25;15.20;1.00
4699;DHT22;33708;49.466;11.176;2022-07-11T02:54:51;15.20;1.00
4699;DHT22;33708;49.466;11.176;2022-07-11T02:57:16;15.20;1.00
4699;DHT22;33708;49.466;11.176;2022-07-11T02:59:42;15.10;1.00
4699;DHT22;33708;49.466;11.176;2022-07-11T03:02:07;15.30;1.00
4699;DHT22;33708;49.466;11.176;2022-07-11T03:04:33;15.30;1.00
4699;DHT22;33708;49.466;11.176;2022-07-11T03:06:59;15.10;1.00
4699;DHT22;33708;49.466;11.176;2022-07-11T03:09:25;15.20;1.00
4699;DHT22;33708;49.466;11.176;2022-07-11T03:11:51;15.30;1.00
4699;DHT22;33708;49.466;11.176;2022-07-11T03:14:18;15.40;1.00
4699;DHT22;33708;49.466;11.176;2022-07-11T03:16:43;15.30;1.00
4699;DHT22;33708;49.466;11.176;2022-07-11T03:19:09;15.30;1.00
4699;DHT22;33708;49.466;11.176;2022-07-11T03:21:36;15.30;1.00
4699;DHT22;33708;49.466;11.176;2022-07-11T03:24:02;15.40;1.00
4699;DHT22;33708;49.466;11.176;2022-07-11T03:26:28;15.40;1.00
4699;DHT22;33708;49.466;11.176;2022-07-11T03:28:54;15.30;1.00
4699;DHT22;33708;49.466;11.176;2022-07-11T03:31:19;15.20;1.00
4699;DHT22;33708;49.466;11.176;2022-07-11T03:33:45;15.20;1.00
4699;DHT22;33708;49.466;11.176;2022-07-11T03:36:11;15.30;1.00
4699;DHT22;33708;49.466;11.176;2022-07-11T03:38:36;15.40;1.00
4699;DHT22;33708;49.466;11.176;2022-07-11T03:41:03;15.30;1.00
4699;DHT22;33708;49.466;11.176;2022-07-11T03:43:29;15.30;1.00
4699;DHT22;33708;49.466;11.176;2022-07-11T03:45:55;15.20;1.00
4699;DHT22;33708;49.466;11.176;2022-07-11T03:48:21;15.20;1.00
4699;DHT22;33708;49.466;11.176;2022-07-11T03:50:47;15.20;1.00
4699;DHT22;33708;49.466;11.176;2022-07-11T03:53:13;15.20;1.00
4699;DHT22;33708;49.466;11.176;2022-07-11T03:55:39;15.40;1.00
4699;DHT22;33708;49.466;11.176;2022-07-11T03:58:05;15.30;1.00
4699;DHT22;33708;49.466;11.176;2022-07-11T04:00:31;15.10;1.00
4699;DHT22;33708;49.466;11.176;2022-07-11T04:02:57;15.10;1.00
4699;DHT22;33708;49.466;11.176;2022-07-11T04:05:23;15.00;1.00
4699;DHT22;33708;49.466;11.176;2022-07-11T04:07:49;15.10;1.00
4699;DHT22;33708;49.466;11.176;2022-07-11T04:10:15;14.70;1.00
4699;DHT22;33708;49.466;11.176;2022-07-11T04:12:43;14.80;1.00
4699;DHT22;33708;49.466;11.176;2022-07-11T04:15:09;14.70;1.00
4699;DHT22;33708;49.466;11.176;2022-07-11T04:17:35;14.80;1.00
4699;DHT22;33708;49.466;11.176;2022-07-11T04:20:01;14.70;1.00
4699;DHT22;33708;49.466;11.176;2022-07-11T04:22:30;14.90;1.00
4699;DHT22;33708;49.466;11.176;2022-07-11T04:24:55;14.90;1.00
4699;DHT22;33708;49.466;11.176;2022-07-11T04:27:21;15.00;1.00
4699;DHT22;33708;49.466;11.176;2022-07-11T04:29:47;15.00;1.00
4699;DHT22;33708;49.466;11.176;2022-07-11T04:32:12;14.80;1.00
4699;DHT22;33708;49.466;11.176;2022-07-11T04:34:38;14.90;1.00
4699;DHT22;33708;49.466;11.176;2022-07-11T04:37:04;15.10;1.00
4699;DHT22;33708;49.466;11.176;2022-07-11T04:39:30;15.10;1.00
4699;DHT22;33708;49.466;11.176;2022-07-11T04:41:57;15.20;1.00
4699;DHT22;33708;49.466;11.176;2022-07-11T04:44:23;15.40;1.00
4699;DHT22;33708;49.466;11.176;2022-07-11T04:46:49;15.30;1.00
4699;DHT22;33708;49.466;11.176;2022-07-11T04:49:14;15.30;1.00
4699;DHT22;33708;49.466;11.176;2022-07-11T04:51:40;15.50;1.00
4699;DHT22;33708;49.466;11.176;2022-07-11T04:54:06;15.70;1.00
4699;DHT22;33708;49.466;11.176;2022-07-11T04:56:32;15.70;1.00
4699;DHT22;33708;49.466;11.176;2022-07-11T04:58:57;15.60;1.00
4699;DHT22;33708;49.466;11.176;2022-07-11T05:01:23;15.80;1.00
4699;DHT22;33708;49.466;11.176;2022-07-11T05:03:48;15.90;1.00
4699;DHT22;33708;49.466;11.176;2022-07-11T05:06:14;16.20;1.00
4699;DHT22;33708;49.466;11.176;2022-07-11T05:08:40;16.00;1.00
4699;DHT22;33708;49.466;11.176;2022-07-11T05:11:06;16.20;1.00
4699;DHT22;33708;49.466;11.176;2022-07-11T05:13:31;16.50;1.00
4699;DHT22;33708;49.466;11.176;2022-07-11T05:15:57;16.70;1.00
4699;DHT22;33708;49.466;11.176;2022-07-11T05:18:23;17.10;1.00
4699;DHT22;33708;49.466;11.176;2022-07-11T05:20:49;17.40;1.00
4699;DHT22;33708;49.466;11.176;2022-07-11T05:23:15;17.20;1.00
4699;DHT22;33708;49.466;11.176;2022-07-11T05:25:41;17.30;1.00
4699;DHT22;33708;49.466;11.176;2022-07-11T05:28:06;17.30;1.00
4699;DHT22;33708;49.466;11.176;2022-07-11T05:30:32;18.40;1.00
4699;DHT22;33708;49.466;11.176;2022-07-11T05:32:58;22.20;1.00
4699;DHT22;33708;49.466;11.176;2022-07-11T05:35:23;21.00;1.00
4699;DHT22;33708;49.466;11.176;2022-07-11T05:37:50;20.60;1.00
4699;DHT22;33708;49.466;11.176;2022-07-11T05:40:16;19.80;1.00
4699;DHT22;33708;49.466;11.176;2022-07-11T05:42:42;19.10;1.00
4699;DHT22;33708;49.466;11.176;2022-07-11T05:45:08;19.00;1.00
4699;DHT22;33708;49.466;11.176;2022-07-11T05:47:34;18.60;1.00
4699;DHT22;33708;49.466;11.176;2022-07-11T05:49:59;18.50;1.00
4699;DHT22;33708;49.466;11.176;2022-07-11T05:52:25;18.20;1.00
4699;DHT22;33708;49.466;11.176;2022-07-11T05:54:51;18.00;1.00
4699;DHT22;33708;49.466;11.176;2022-07-11T05:57:16;18.00;1.00
4699;DHT22;33708;49.466;11.176;2022-07-11T05:59:42;18.00;1.00
4699;DHT22;33708;49.466;11.176;2022-07-11T06:02:08;17.80;1.00
4699;DHT22;33708;49.466;11.176;2022-07-11T06:04:34;18.10;1.00
4699;DHT22;33708;49.466;11.176;2022-07-11T06:07:00;18.10;1.00
4699;DHT22;33708;49.466;11.176;2022-07-11T06:09:26;18.00;1.00
4699;DHT22;33708;49.466;11.176;2022-07-11T06:11:52;18.20;1.00
4699;DHT22;33708;49.466;11.176;2022-07-11T06:14:18;18.50;1.00
4699;DHT22;33708;49.466;11.176;2022-07-11T06:16:43;18.40;1.00
4699;DHT22;33708;49.466;11.176;2022-07-11T06:19:09;18.60;1.00
4699;DHT22;33708;49.466;11.176;2022-07-11T06:21:35;18.40;1.00
4699;DHT22;33708;49.466;11.176;2022-07-11T06:24:00;18.50;1.00
4699;DHT22;33708;49.466;11.176;2022-07-11T06:26:26;18.60;1.00
4699;DHT22;33708;49.466;11.176;2022-07-11T06:28:51;18.80;1.00
4699;DHT22;33708;49.466;11.176;2022-07-11T06:31:17;19.50;1.00
4699;DHT22;33708;49.466;11.176;2022-07-11T06:33:43;20.50;1.00
4699;DHT22;33708;49.466;11.176;2022-07-11T06:36:08;20.40;1.00
4699;DHT22;33708;49.466;11.176;2022-07-11T06:38:34;19.20;1.00
4699;DHT22;33708;49.466;11.176;2022-07-11T06:41:00;19.10;1.00
4699;DHT22;33708;49.466;11.176;2022-07-11T06:43:28;19.20;1.00
4699;DHT22;33708;49.466;11.176;2022-07-11T06:45:54;19.40;1.00
4699;DHT22;33708;49.466;11.176;2022-07-11T06:48:20;19.10;1.00
4699;DHT22;33708;49.466;11.176;2022-07-11T06:50:48;19.40;1.00
4699;DHT22;33708;49.466;11.176;2022-07-11T06:53:14;19.30;1.00
4699;DHT22;33708;49.466;11.176;2022-07-11T06:55:39;19.70;1.00
4699;DHT22;33708;49.466;11.176;2022-07-11T06:58:05;19.70;1.00
4699;DHT22;33708;49.466;11.176;2022-07-11T07:00:31;20.40;1.00
4699;DHT22;33708;49.466;11.176;2022-07-11T07:02:57;20.90;1.00
4699;DHT22;33708;49.466;11.176;2022-07-11T07:05:26;21.20;1.00
4699;DHT22;33708;49.466;11.176;2022-07-11T07:07:52;20.90;1.00
4699;DHT22;33708;49.466;11.176;2022-07-11T07:10:18;20.60;1.00
4699;DHT22;33708;49.466;11.176;2022-07-11T07:12:45;21.00;1.00
4699;DHT22;33708;49.466;11.176;2022-07-11T07:15:11;20.10;1.00
4699;DHT22;33708;49.466;11.176;2022-07-11T07:17:38;20.10;1.00
4699;DHT22;33708;49.466;11.176;2022-07-11T07:20:05;20.00;1.00
4699;DHT22;33708;49.466;11.176;2022-07-11T07:22:34;20.50;1.00
4699;DHT22;33708;49.466;11.176;2022-07-11T07:24:59;20.30;1.00
4699;DHT22;33708;49.466;11.176;2022-07-11T07:27:26;20.30;1.00
4699;DHT22;33708;49.466;11.176;2022-07-11T07:29:52;20.30;1.00
4699;DHT22;33708;49.466;11.176;2022-07-11T07:32:17;20.00;1.00
4699;DHT22;33708;49.466;11.176;2022-07-11T07:34:43;20.20;1.00
4699;DHT22;33708;49.466;11.176;2022-07-11T07:37:09;20.00;1.00
4699;DHT22;33708;49.466;11.176;2022-07-11T07:39:34;19.90;1.00
4699;DHT22;33708;49.466;11.176;2022-07-11T07:42:00;20.10;1.00
4699;DHT22;33708;49.466;11.176;2022-07-11T07:44:26;20.20;1.00
4699;DHT22;33708;49.466;11.176;2022-07-11T07:46:52;20.10;1.00
4699;DHT22;33708;49.466;11.176;2022-07-11T07:49:18;20.00;1.00
4699;DHT22;33708;49.466;11.176;2022-07-11T07:51:43;20.10;1.00
4699;DHT22;33708;49.466;11.176;2022-07-11T07:54:11;20.00;1.00
4699;DHT22;33708;49.466;11.176;2022-07-11T07:56:38;19.80;1.00
4699;DHT22;33708;49.466;11.176;2022-07-11T07:59:04;20.20;1.00
4699;DHT22;33708;49.466;11.176;2022-07-11T08:01:30;19.80;1.00
4699;DHT22;33708;49.466;11.176;2022-07-11T08:04:09;19.70;1.00
4699;DHT22;33708;49.466;11.176;2022-07-11T08:06:36;20.10;1.00
4699;DHT22;33708;49.466;11.176;2022-07-11T08:09:06;20.30;1.00
4699;DHT22;33708;49.466;11.176;2022-07-11T08:11:32;20.50;1.00
4699;DHT22;33708;49.466;11.176;2022-07-11T08:13:59;20.40;1.00
4699;DHT22;33708;49.466;11.176;2022-07-11T08:16:25;20.50;1.00
4699;DHT22;33708;49.466;11.176;2022-07-11T08:18:50;20.40;1.00
4699;DHT22;33708;49.466;11.176;2022-07-11T08:21:18;20.60;1.00
4699;DHT22;33708;49.466;11.176;2022-07-11T08:23:44;20.30;1.00
4699;DHT22;33708;49.466;11.176;2022-07-11T08:26:09;20.50;1.00
4699;DHT22;33708;49.466;11.176;2022-07-11T08:28:36;20.60;1.00
4699;DHT22;33708;49.466;11.176;2022-07-11T08:31:01;20.80;1.00
4699;DHT22;33708;49.466;11.176;2022-07-11T08:33:27;20.30;1.00
4699;DHT22;33708;49.466;11.176;2022-07-11T08:35:53;19.90;1.00
4699;DHT22;33708;49.466;11.176;2022-07-11T08:38:18;19.50;1.00
4699;DHT22;33708;49.466;11.176;2022-07-11T08:40:44;19.40;1.00
4699;DHT22;33708;49.466;11.176;2022-07-11T08:43:14;18.90;1.00
4699;DHT22;33708;49.466;11.176;2022-07-11T08:45:40;18.90;1.00
4699;DHT22;33708;49.466;11.176;2022-07-11T08:48:07;18.80;1.00
4699;DHT22;33708;49.466;11.176;2022-07-11T08:50:35;18.70;1.00
4699;DHT22;33708;49.466;11.176;2022-07-11T08:53:03;18.30;1.00
4699;DHT22;33708;49.466;11.176;2022-07-11T08:55:29;18.10;1.00
4699;DHT22;33708;49.466;11.176;2022-07-11T08:57:55;18.10;1.00
4699;DHT22;33708;49.466;11.176;2022-07-11T09:00:22;18.10;1.00
4699;DHT22;33708;49.466;11.176;2022-07-11T09:02:48;18.30;1.00
4699;DHT22;33708;49.466;11.176;2022-07-11T09:05:15;18.60;1.00
4699;DHT22;33708;49.466;11.176;2022-07-11T09:07:44;18.60;1.00
4699;DHT22;33708;49.466;11.176;2022-07-11T09:10:11;18.40;1.00
4699;DHT22;33708;49.466;11.176;2022-07-11T09:12:37;18.40;1.00
4699;DHT22;33708;49.466;11.176;2022-07-11T09:15:03;18.40;1.00
4699;DHT22;33708;49.466;11.176;2022-07-11T09:17:29;18.20;1.00
4699;DHT22;33708;49.466;11.176;2022-07-11T09:19:58;18.10;1.00
4699;DHT22;33708;49.466;11.176;2022-07-11T09:22:24;18.40;1.00
4699;DHT22;33708;49.466;11.176;2022-07-11T09:25:10;18.20;1.00
4699;DHT22;33708;49.466;11.176;2022-07-11T09:28:03;18.20;1.00
4699;DHT22;33708;49.466;11.176;2022-07-11T09:30:34;18.50;1.00
4699;DHT22;33708;49.466;11.176;2022-07-11T09:33:08;18.50;1.00
4699;DHT22;33708;49.466;11.176;2022-07-11T09:35:41;18.60;1.00
4699;DHT22;33708;49.466;11.176;2022-07-11T09:38:09;18.70;1.00
4699;DHT22;33708;49.466;11.176;2022-07-11T09:40:36;18.70;1.00
4699;DHT22;33708;49.466;11.176;2022-07-11T09:43:03;18.60;1.00
4699;DHT22;33708;49.466;11.176;2022-07-11T09:45:32;18.40;1.00
4699;DHT22;33708;49.466;11.176;2022-07-11T09:50:33;18.10;1.00
4699;DHT22;33708;49.466;11.176;2022-07-11T09:53:14;18.60;1.00
4699;DHT22;33708;49.466;11.176;2022-07-11T09:55:42;19.50;1.00
4699;DHT22;33708;49.466;11.176;2022-07-11T09:58:11;20.20;1.00
4699;DHT22;33708;49.466;11.176;2022-07-11T10:00:38;20.90;1.00
4699;DHT22;33708;49.466;11.176;2022-07-11T10:03:08;20.80;1.00
4699;DHT22;33708;49.466;11.176;2022-07-11T10:05:34;21.10;1.00
4699;DHT22;33708;49.466;11.176;2022-07-11T10:08:01;20.30;1.00
4699;DHT22;33708;49.466;11.176;2022-07-11T10:10:28;20.40;1.00
4699;DHT22;33708;49.466;11.176;2022-07-11T10:12:55;20.30;1.00
4699;DHT22;33708;49.466;11.176;2022-07-11T10:15:29;21.20;1.00
4699;DHT22;33708;49.466;11.176;2022-07-11T10:18:25;21.90;1.00
4699;DHT22;33708;49.466;11.176;2022-07-11T10:21:17;22.20;1.00
4699;DHT22;33708;49.466;11.176;2022-07-11T10:23:54;22.70;1.00
4699;DHT22;33708;49.466;11.176;2022-07-11T10:26:32;21.60;1.00
4699;DHT22;33708;49.466;11.176;2022-07-11T10:29:09;20.70;1.00
4699;DHT22;33708;49.466;11.176;2022-07-11T10:31:35;20.70;1.00
4699;DHT22;33708;49.466;11.176;2022-07-11T10:34:07;21.50;1.00
4699;DHT22;33708;49.466;11.176;2022-07-11T10:36:43;20.80;1.00
4699;DHT22;33708;49.466;11.176;2022-07-11T10:39:18;20.80;1.00
4699;DHT22;33708;49.466;11.176;2022-07-11T10:41:47;20.90;1.00
4699;DHT22;33708;49.466;11.176;2022-07-11T10:44:13;21.00;1.00
4699;DHT22;33708;49.466;11.176;2022-07-11T10:46:38;21.30;1.00
4699;DHT22;33708;49.466;11.176;2022-07-11T11:00:01;19.90;1.00
4699;DHT22;33708;49.466;11.176;2022-07-11T11:02:28;19.80;1.00
4699;DHT22;33708;49.466;11.176;2022-07-11T11:04:56;19.70;1.00
4699;DHT22;33708;49.466;11.176;2022-07-11T11:07:43;19.50;1.00
4699;DHT22;33708;49.466;11.176;2022-07-11T11:23:38;22.00;1.00
4699;DHT22;33708;49.466;11.176;2022-07-11T11:26:08;23.30;1.00
4699;DHT22;33708;49.466;11.176;2022-07-11T11:28:34;23.80;1.00
4699;DHT22;33708;49.466;11.176;2022-07-11T11:31:02;23.40;1.00
4699;DHT22;33708;49.466;11.176;2022-07-11T11:33:37;23.30;1.00
4699;DHT22;33708;49.466;11.176;2022-07-11T11:36:07;22.90;1.00
4699;DHT22;33708;49.466;11.176;2022-07-11T11:38:35;22.80;1.00
4699;DHT22;33708;49.466;11.176;2022-07-11T11:41:00;22.60;1.00
4699;DHT22;33708;49.466;11.176;2022-07-11T11:43:26;22.40;1.00
4699;DHT22;33708;49.466;11.176;2022-07-11T11:45:53;22.00;1.00
4699;DHT22;33708;49.466;11.176;2022-07-11T11:48:45;22.70;1.00
4699;DHT22;33708;49.466;11.176;2022-07-11T11:51:16;22.90;1.00
4699;DHT22;33708;49.466;11.176;2022-07-11T11:53:54;23.50;1.00
4699;DHT22;33708;49.466;11.176;2022-07-11T11:59:00;24.20;1.00
4699;DHT22;33708;49.466;11.176;2022-07-11T12:01:28;24.00;1.00
4699;DHT22;33708;49.466;11.176;2022-07-11T12:04:00;24.10;1.00
4699;DHT22;33708;49.466;11.176;2022-07-11T12:06:29;24.00;1.00
4699;DHT22;33708;49.466;11.176;2022-07-11T12:09:07;24.20;1.00
4699;DHT22;33708;49.466;11.176;2022-07-11T12:11:36;24.50;1.00
4699;DHT22;33708;49.466;11.176;2022-07-11T12:14:09;23.90;1.00
4699;DHT22;33708;49.466;11.176;2022-07-11T12:16:43;24.20;1.00
4699;DHT22;33708;49.466;11.176;2022-07-11T12:19:20;25.20;1.00
4699;DHT22;33708;49.466;11.176;2022-07-11T12:21:49;25.20;1.00
4699;DHT22;33708;49.466;11.176;2022-07-11T12:24:23;25.70;1.00
4699;DHT22;33708;49.466;11.176;2022-07-11T12:26:49;25.20;1.00
4699;DHT22;33708;49.466;11.176;2022-07-11T12:29:20;25.90;1.00
4699;DHT22;33708;49.466;11.176;2022-07-11T12:32:00;26.60;1.00
4699;DHT22;33708;49.466;11.176;2022-07-11T12:37:18;26.30;1.00
4699;DHT22;33708;49.466;11.176;2022-07-11T12:42:28;25.70;1.00
4699;DHT22;33708;49.466;11.176;2022-07-11T12:45:02;25.90;1.00
4699;DHT22;33708;49.466;11.176;2022-07-11T12:47:42;25.10;1.00
4699;DHT22;33708;49.466;11.176;2022-07-11T12:52:45;26.20;1.00
4699;DHT22;33708;49.466;11.176;2022-07-11T12:55:20;26.30;1.00
4699;DHT22;33708;49.466;11.176;2022-07-11T13:00:31;25.90;1.00
4699;DHT22;33708;49.466;11.176;2022-07-11T13:02:57;25.90;1.00
4699;DHT22;33708;49.466;11.176;2022-07-11T13:05:23;25.70;1.00
4699;DHT22;33708;49.466;11.176;2022-07-11T13:07:49;25.10;1.00
4699;DHT22;33708;49.466;11.176;2022-07-11T13:10:34;25.30;1.00
4699;DHT22;33708;49.466;11.176;2022-07-11T13:13:19;25.20;1.00
4699;DHT22;33708;49.466;11.176;2022-07-11T13:15:46;25.30;1.00
4699;DHT22;33708;49.466;11.176;2022-07-11T13:18:13;25.70;1.00
4699;DHT22;33708;49.466;11.176;2022-07-11T13:20:39;26.00;1.00
4699;DHT22;33708;49.466;11.176;2022-07-11T13:23:05;25.50;1.00
4699;DHT22;33708;49.466;11.176;2022-07-11T13:25:33;25.50;1.00
4699;DHT22;33708;49.466;11.176;2022-07-11T13:27:59;25.50;1.00
4699;DHT22;33708;49.466;11.176;2022-07-11T13:30:25;24.90;1.00
4699;DHT22;33708;49.466;11.176;2022-07-11T13:32:57;25.60;1.00
4699;DHT22;33708;49.466;11.176;2022-07-11T13:35:23;25.10;1.00
4699;DHT22;33708;49.466;11.176;2022-07-11T13:37:49;24.80;1.00
4699;DHT22;33708;49.466;11.176;2022-07-11T13:40:17;25.00;1.00
4699;DHT22;33708;49.466;11.176;2022-07-11T13:42:43;25.30;1.00
4699;DHT22;33708;49.466;11.176;2022-07-11T13:45:12;25.10;1.00
4699;DHT22;33708;49.466;11.176;2022-07-11T13:47:37;25.00;1.00
4699;DHT22;33708;49.466;11.176;2022-07-11T13:50:03;25.50;1.00
4699;DHT22;33708;49.466;11.176;2022-07-11T13:52:29;25.60;1.00
4699;DHT22;33708;49.466;11.176;2022-07-11T13:54:55;25.80;1.00
4699;DHT22;33708;49.466;11.176;2022-07-11T13:57:21;25.90;1.00
4699;DHT22;33708;49.466;11.176;2022-07-11T13:59:48;25.70;1.00
4699;DHT22;33708;49.466;11.176;2022-07-11T14:02:15;25.60;1.00
4699;DHT22;33708;49.466;11.176;2022-07-11T14:04:40;25.40;1.00
4699;DHT22;33708;49.466;11.176;2022-07-11T14:07:09;25.20;1.00
4699;DHT22;33708;49.466;11.176;2022-07-11T14:09:37;25.30;1.00
4699;DHT22;33708;49.466;11.176;2022-07-11T14:12:04;25.70;1.00
4699;DHT22;33708;49.466;11.176;2022-07-11T14:14:30;25.60;1.00
4699;DHT22;33708;49.466;11.176;2022-07-11T14:16:56;25.80;1.00
4699;DHT22;33708;49.466;11.176;2022-07-11T14:19:22;26.10;1.00
4699;DHT22;33708;49.466;11.176;2022-07-11T14:21:47;26.20;1.00
4699;DHT22;33708;49.466;11.176;2022-07-11T14:24:13;25.80;1.00
4699;DHT22;33708;49.466;11.176;2022-07-11T14:26:39;25.90;1.00
4699;DHT22;33708;49.466;11.176;2022-07-11T14:29:05;25.90;1.00
4699;DHT22;33708;49.466;11.176;2022-07-11T14:31:32;25.70;1.00
4699;DHT22;33708;49.466;11.176;2022-07-11T14:33:59;25.60;1.00
4699;DHT22;33708;49.466;11.176;2022-07-11T14:36:25;25.50;1.00
4699;DHT22;33708;49.466;11.176;2022-07-11T14:38:51;25.70;1.00
4699;DHT22;33708;49.466;11.176;2022-07-11T14:41:18;25.40;1.00
4699;DHT22;33708;49.466;11.176;2022-07-11T14:43:45;25.50;1.00
4699;DHT22;33708;49.466;11.176;2022-07-11T14:46:14;25.10;1.00
4699;DHT22;33708;49.466;11.176;2022-07-11T14:48:41;24.80;1.00
4699;DHT22;33708;49.466;11.176;2022-07-11T14:51:08;25.10;1.00
4699;DHT22;33708;49.466;11.176;2022-07-11T14:53:34;24.80;1.00
4699;DHT22;33708;49.466;11.176;2022-07-11T14:55:59;24.60;1.00
4699;DHT22;33708;49.466;11.176;2022-07-11T14:58:25;24.70;1.00
4699;DHT22;33708;49.466;11.176;2022-07-11T15:00:50;23.80;1.00
4699;DHT22;33708;49.466;11.176;2022-07-11T15:03:17;24.10;1.00
4699;DHT22;33708;49.466;11.176;2022-07-11T15:06:01;24.10;1.00
4699;DHT22;33708;49.466;11.176;2022-07-11T15:08:28;23.80;1.00
4699;DHT22;33708;49.466;11.176;2022-07-11T15:11:12;24.00;1.00
4699;DHT22;33708;49.466;11.176;2022-07-11T15:13:56;24.00;1.00
4699;DHT22;33708;49.466;11.176;2022-07-11T15:16:22;24.10;1.00
4699;DHT22;33708;49.466;11.176;2022-07-11T15:18:48;24.20;1.00
4699;DHT22;33708;49.466;11.176;2022-07-11T15:21:14;24.40;1.00
4699;DHT22;33708;49.466;11.176;2022-07-11T15:23:39;24.20;1.00
4699;DHT22;33708;49.466;11.176;2022-07-11T15:26:05;24.10;1.00
4699;DHT22;33708;49.466;11.176;2022-07-11T15:28:31;23.70;1.00
4699;DHT22;33708;49.466;11.176;2022-07-11T15:30:57;23.80;1.00
4699;DHT22;33708;49.466;11.176;2022-07-11T15:33:23;23.90;1.00
4699;DHT22;33708;49.466;11.176;2022-07-11T15:35:49;24.10;1.00
4699;DHT22;33708;49.466;11.176;2022-07-11T15:38:16;24.20;1.00
4699;DHT22;33708;49.466;11.176;2022-07-11T15:40:45;23.90;1.00
4699;DHT22;33708;49.466;11.176;2022-07-11T15:43:12;24.00;1.00
4699;DHT22;33708;49.466;11.176;2022-07-11T15:45:38;23.80;1.00
4699;DHT22;33708;49.466;11.176;2022-07-11T15:48:04;23.60;1.00
4699;DHT22;33708;49.466;11.176;2022-07-11T15:50:30;23.80;1.00
4699;DHT22;33708;49.466;11.176;2022-07-11T15:52:56;23.50;1.00
4699;DHT22;33708;49.466;11.176;2022-07-11T15:55:21;23.30;1.00
4699;DHT22;33708;49.466;11.176;2022-07-11T15:57:47;23.00;1.00
4699;DHT22;33708;49.466;11.176;2022-07-11T16:00:14;22.80;1.00
4699;DHT22;33708;49.466;11.176;2022-07-11T16:02:40;22.70;1.00
4699;DHT22;33708;49.466;11.176;2022-07-11T16:05:06;22.70;1.00
4699;DHT22;33708;49.466;11.176;2022-07-11T16:07:33;22.50;1.00
4699;DHT22;33708;49.466;11.176;2022-07-11T16:09:59;22.20;1.00
4699;DHT22;33708;49.466;11.176;2022-07-11T16:12:27;22.30;1.00
4699;DHT22;33708;49.466;11.176;2022-07-11T16:14:53;22.10;1.00
4699;DHT22;33708;49.466;11.176;2022-07-11T16:17:19;22.20;1.00
4699;DHT22;33708;49.466;11.176;2022-07-11T16:19:45;21.70;1.00
4699;DHT22;33708;49.466;11.176;2022-07-11T16:22:11;21.80;1.00
4699;DHT22;33708;49.466;11.176;2022-07-11T16:24:38;21.80;1.00
4699;DHT22;33708;49.466;11.176;2022-07-11T16:27:04;21.90;1.00